createdAt,value
2023-01-27T00:00:25.024Z,13.25
2023-01-27T00:02:51.430Z,13.27
2023-01-27T00:05:18.068Z,12.77
2023-01-27T00:07:47.961Z,11.73
2023-01-27T00:10:16.234Z,13.35
2023-01-27T00:13:02.484Z,12.00
2023-01-27T00:15:30.465Z,11.48
2023-01-27T00:17:57.103Z,11.75
2023-01-27T00:20:42.775Z,12.65
2023-01-27T00:23:33.739Z,12.90
2023-01-27T00:26:01.154Z,10.85
2023-01-27T00:28:31.045Z,12.65
2023-01-27T00:30:58.937Z,14.35
2023-01-27T00:33:27.304Z,15.35
2023-01-27T00:36:07.065Z,15.85
2023-01-27T00:38:40.739Z,15.75
2023-01-27T00:41:19.991Z,13.88
2023-01-27T00:43:47.665Z,14.15
2023-01-27T00:46:15.742Z,15.18
2023-01-27T00:48:42.207Z,14.23
2023-01-27T00:51:09.336Z,15.80
2023-01-27T00:53:35.765Z,17.63
2023-01-27T00:56:02.116Z,22.17
2023-01-27T00:58:29.078Z,22.55
2023-01-27T01:00:59.207Z,19.58
2023-01-27T01:03:26.585Z,18.25
2023-01-27T01:05:52.951Z,21.70
2023-01-27T01:08:19.282Z,18.77
2023-01-27T01:10:45.741Z,17.15
2023-01-27T01:13:12.161Z,20.63
2023-01-27T01:15:39.645Z,20.15
2023-01-27T01:18:07.481Z,18.77
2023-01-27T01:20:40.101Z,16.80
2023-01-27T01:23:07.024Z,14.98
2023-01-27T01:25:34.084Z,13.02
2023-01-27T01:28:02.422Z,12.75
2023-01-27T01:30:29.445Z,13.68
2023-01-27T01:32:56.957Z,16.52
2023-01-27T01:35:27.777Z,14.77
2023-01-27T01:37:54.261Z,13.70
2023-01-27T01:40:24.678Z,13.18
2023-01-27T01:42:59.937Z,12.77
2023-01-27T01:45:32.405Z,25.75
2023-01-27T01:48:16.601Z,15.70
2023-01-27T01:50:48.094Z,13.10
2023-01-27T01:53:14.723Z,14.55
2023-01-27T01:55:41.931Z,16.75
2023-01-27T01:58:11.762Z,27.98
2023-01-27T02:00:38.702Z,27.17
2023-01-27T02:03:05.100Z,38.80
2023-01-27T02:05:35.622Z,27.95
2023-01-27T02:08:15.211Z,26.45
2023-01-27T02:10:44.362Z,20.92
2023-01-27T02:13:10.792Z,19.88
2023-01-27T02:15:38.110Z,19.02
2023-01-27T02:18:05.076Z,18.50
2023-01-27T02:20:44.006Z,19.13
2023-01-27T02:23:22.084Z,20.08
2023-01-27T02:25:54.588Z,17.83
2023-01-27T02:28:21.271Z,15.85
2023-01-27T02:30:47.738Z,15.98
2023-01-27T02:33:15.409Z,14.90
2023-01-27T02:35:58.792Z,12.52
2023-01-27T02:38:29.241Z,12.55
2023-01-27T02:40:59.203Z,12.80
2023-01-27T02:43:25.907Z,13.70
2023-01-27T02:45:52.389Z,13.05
2023-01-27T02:48:19.175Z,13.40
2023-01-27T02:50:45.502Z,13.15
2023-01-27T02:53:11.855Z,13.43
2023-01-27T02:55:39.533Z,13.40
2023-01-27T02:58:06.719Z,13.73
2023-01-27T03:00:40.866Z,14.27
2023-01-27T03:03:07.165Z,13.13
2023-01-27T03:05:33.574Z,13.65
2023-01-27T03:07:59.951Z,13.63
2023-01-27T03:10:26.322Z,14.07
2023-01-27T03:12:52.633Z,15.35
2023-01-27T03:15:37.703Z,14.90
2023-01-27T03:18:15.930Z,16.77
2023-01-27T03:20:45.897Z,14.85
2023-01-27T03:23:14.976Z,14.48
2023-01-27T03:25:46.146Z,14.57
2023-01-27T03:28:14.094Z,14.70
2023-01-27T03:30:45.783Z,14.40
2023-01-27T03:33:32.458Z,13.85
2023-01-27T03:36:22.937Z,15.15
2023-01-27T03:39:09.913Z,13.07
2023-01-27T03:41:54.934Z,13.30
2023-01-27T03:44:42.250Z,13.65
2023-01-27T03:47:08.609Z,13.73
2023-01-27T03:49:34.950Z,12.13
2023-01-27T03:52:01.281Z,12.88
2023-01-27T03:54:27.771Z,14.45
2023-01-27T03:56:54.069Z,12.98
2023-01-27T03:59:20.600Z,13.75
2023-01-27T04:01:46.950Z,14.02
2023-01-27T04:04:32.157Z,13.20
2023-01-27T04:07:00.675Z,12.20
2023-01-27T04:09:33.767Z,12.00
2023-01-27T04:12:02.392Z,12.13
2023-01-27T04:14:37.888Z,12.88
2023-01-27T04:17:07.007Z,12.93
2023-01-27T04:19:34.118Z,13.05
2023-01-27T04:22:01.630Z,15.38
2023-01-27T04:24:28.750Z,13.63
2023-01-27T04:27:00.679Z,13.13
2023-01-27T04:29:29.942Z,12.85
2023-01-27T04:31:57.692Z,13.00
2023-01-27T04:34:25.851Z,11.90
2023-01-27T04:36:52.331Z,12.65
2023-01-27T04:39:19.200Z,11.73
2023-01-27T04:41:46.365Z,10.93
2023-01-27T04:44:13.115Z,11.32
2023-01-27T04:46:39.603Z,12.15
2023-01-27T04:49:06.733Z,12.50
2023-01-27T04:51:34.068Z,11.35
2023-01-27T04:54:00.623Z,11.43
2023-01-27T04:56:36.940Z,11.60
2023-01-27T04:59:12.076Z,12.52
2023-01-27T05:01:38.690Z,11.77
2023-01-27T05:04:05.258Z,10.40
2023-01-27T05:06:31.618Z,10.77
2023-01-27T05:08:57.990Z,11.90
2023-01-27T05:11:24.451Z,12.68
2023-01-27T05:13:50.799Z,13.38
2023-01-27T05:16:19.779Z,16.70
2023-01-27T05:18:48.421Z,18.15
2023-01-27T05:21:18.697Z,16.00
2023-01-27T05:23:45.302Z,15.57
2023-01-27T05:26:23.566Z,14.57
2023-01-27T05:28:51.990Z,15.88
2023-01-27T05:31:24.378Z,16.08
2023-01-27T05:33:53.225Z,12.57
2023-01-27T05:36:23.260Z,13.00
2023-01-27T05:38:49.738Z,12.43
2023-01-27T05:41:17.830Z,11.02
2023-01-27T05:43:46.482Z,12.35
2023-01-27T05:46:18.926Z,13.88
2023-01-27T05:48:47.777Z,14.18
2023-01-27T05:51:15.962Z,15.23
2023-01-27T05:53:43.243Z,13.75
2023-01-27T05:56:12.459Z,13.45
2023-01-27T05:58:39.599Z,12.35
2023-01-27T06:01:10.530Z,11.38
2023-01-27T06:03:38.132Z,12.18
2023-01-27T06:06:05.180Z,11.65
2023-01-27T06:08:31.595Z,12.25
2023-01-27T06:10:58.848Z,11.80
2023-01-27T06:13:25.880Z,10.25
2023-01-27T06:15:52.451Z,11.63
2023-01-27T06:18:19.486Z,11.40
2023-01-27T06:20:46.614Z,15.07
2023-01-27T06:23:15.709Z,26.42
2023-01-27T06:25:47.694Z,27.92
2023-01-27T06:28:28.119Z,15.15
2023-01-27T06:33:22.189Z,11.38
2023-01-27T06:35:48.625Z,12.38
2023-01-27T06:38:15.427Z,13.73
2023-01-27T06:40:42.592Z,14.20
2023-01-27T06:43:12.451Z,12.75
2023-01-27T06:45:38.929Z,12.82
2023-01-27T06:48:05.410Z,13.70
2023-01-27T06:50:31.766Z,15.20
2023-01-27T06:53:03.326Z,14.60
2023-01-27T06:55:30.272Z,15.82
2023-01-27T06:57:56.717Z,16.83
2023-01-27T07:00:23.370Z,15.70
2023-01-27T07:02:50.525Z,13.43
2023-01-27T07:05:16.948Z,14.75
2023-01-27T07:07:43.291Z,13.02
2023-01-27T07:10:10.082Z,14.40
2023-01-27T07:12:37.776Z,13.52
2023-01-27T07:15:06.189Z,14.32
2023-01-27T07:17:32.894Z,15.05
2023-01-27T07:19:59.687Z,14.20
2023-01-27T07:22:26.561Z,17.42
2023-01-27T07:24:52.882Z,15.43
2023-01-27T07:27:19.224Z,16.38
2023-01-27T07:29:45.587Z,18.55
2023-01-27T07:32:11.892Z,16.17
2023-01-27T07:34:38.228Z,13.02
2023-01-27T07:37:05.204Z,14.15
2023-01-27T07:39:33.315Z,12.82
2023-01-27T07:42:01.574Z,13.00
2023-01-27T07:44:28.518Z,14.15
2023-01-27T07:46:54.994Z,11.10
2023-01-27T07:49:21.318Z,13.40
2023-01-27T07:51:47.632Z,12.32
2023-01-27T07:54:13.965Z,12.18
2023-01-27T07:56:40.272Z,17.55
2023-01-27T07:59:06.880Z,14.27
2023-01-27T08:01:33.685Z,11.60
2023-01-27T08:04:00.013Z,10.65
2023-01-27T08:06:26.336Z,13.35
2023-01-27T08:08:53.032Z,10.82
2023-01-27T08:11:19.416Z,10.02
2023-01-27T08:13:45.800Z,12.93
2023-01-27T08:16:14.189Z,15.55
2023-01-27T08:18:40.754Z,13.73
2023-01-27T08:21:11.153Z,11.15
2023-01-27T08:23:37.526Z,11.73
2023-01-27T08:26:05.970Z,12.07
2023-01-27T08:28:34.124Z,18.48
2023-01-27T08:31:08.215Z,14.85
2023-01-27T08:33:34.751Z,11.70
2023-01-27T08:36:11.599Z,19.40
2023-01-27T08:38:38.678Z,16.73
2023-01-27T08:41:07.210Z,12.50
2023-01-27T08:43:33.742Z,15.85
2023-01-27T08:46:00.951Z,15.00
2023-01-27T08:48:31.574Z,16.77
2023-01-27T08:50:59.770Z,13.90
2023-01-27T08:53:27.240Z,20.52
2023-01-27T08:55:56.937Z,17.83
2023-01-27T08:58:23.789Z,15.40
2023-01-27T09:00:50.148Z,14.07
2023-01-27T09:03:16.695Z,13.02
2023-01-27T09:05:43.334Z,16.85
2023-01-27T09:08:10.071Z,14.68
2023-01-27T09:10:38.882Z,12.20
2023-01-27T09:13:05.282Z,12.23
2023-01-27T09:15:32.223Z,10.80
2023-01-27T09:17:58.530Z,11.20
2023-01-27T09:20:24.924Z,12.20
2023-01-27T09:22:51.224Z,10.68
2023-01-27T09:25:17.690Z,11.18
2023-01-27T09:27:44.399Z,11.18
2023-01-27T09:30:12.673Z,10.10
2023-01-27T09:32:39.950Z,10.93
2023-01-27T09:35:07.207Z,12.10
2023-01-27T09:37:40.131Z,10.70
2023-01-27T09:40:26.492Z,11.32
2023-01-27T09:42:55.799Z,11.65
2023-01-27T09:45:40.206Z,11.95
2023-01-27T09:48:29.517Z,12.25
2023-01-27T09:51:15.648Z,15.13
2023-01-27T09:54:15.250Z,15.52
2023-01-27T09:56:51.219Z,14.32
2023-01-27T09:59:26.453Z,13.02
2023-01-27T10:02:14.159Z,11.38
2023-01-27T10:04:57.181Z,11.38
2023-01-27T10:07:26.485Z,9.50
2023-01-27T10:10:12.044Z,9.82
2023-01-27T10:12:50.376Z,10.40
2023-01-27T10:15:51.808Z,10.40
2023-01-27T10:18:26.923Z,11.18
2023-01-27T10:21:03.818Z,11.77
2023-01-27T10:23:37.445Z,11.85
2023-01-27T10:26:39.288Z,10.73
2023-01-27T10:29:20.049Z,9.13
2023-01-27T10:32:04.559Z,8.88
2023-01-27T10:34:46.834Z,9.43
2023-01-27T10:37:28.305Z,8.57
2023-01-27T10:40:00.953Z,8.70
2023-01-27T10:42:55.470Z,8.20
2023-01-27T10:45:40.684Z,7.13
2023-01-27T10:48:30.808Z,8.23
2023-01-27T10:51:02.705Z,7.65
2023-01-27T10:53:38.286Z,7.47
2023-01-27T10:56:12.735Z,7.10
2023-01-27T10:58:48.325Z,7.53
2023-01-27T11:01:21.661Z,21.85
2023-01-27T11:03:59.579Z,59.17
2023-01-27T11:06:30.655Z,62.33
2023-01-27T11:09:08.733Z,63.80
2023-01-27T11:11:45.395Z,19.10
2023-01-27T11:14:38.830Z,22.33
2023-01-27T11:17:23.084Z,10.27
2023-01-27T11:19:55.466Z,9.48
2023-01-27T11:22:27.245Z,6.07
2023-01-27T11:25:07.558Z,7.30
2023-01-27T11:28:06.054Z,11.05
2023-01-27T11:30:46.659Z,17.92
2023-01-27T11:33:27.995Z,13.10
2023-01-27T11:38:23.206Z,11.20
2023-01-27T11:40:52.938Z,9.98
2023-01-27T11:43:24.143Z,9.32
2023-01-27T11:48:22.356Z,5.13
2023-01-27T11:50:49.657Z,5.95
2023-01-27T11:53:26.174Z,6.18
2023-01-27T11:56:00.606Z,7.50
2023-01-27T11:58:47.198Z,6.57
2023-01-27T12:01:19.998Z,8.25
2023-01-27T12:04:07.908Z,7.45
2023-01-27T12:06:40.387Z,16.83
2023-01-27T12:09:06.700Z,16.95
2023-01-27T12:11:33.032Z,19.65
2023-01-27T12:14:01.842Z,24.58
2023-01-27T12:16:43.315Z,15.43
2023-01-27T12:19:27.470Z,23.30
2023-01-27T12:22:01.159Z,7.13
2023-01-27T12:24:38.248Z,8.48
2023-01-27T12:27:06.722Z,10.15
2023-01-27T12:29:38.773Z,7.50
2023-01-27T12:32:18.262Z,11.52
2023-01-27T12:34:48.086Z,8.45
2023-01-27T12:37:27.246Z,9.60
2023-01-27T12:40:00.228Z,11.55
2023-01-27T12:43:01.615Z,9.57
2023-01-27T12:45:29.826Z,6.93
2023-01-27T12:47:58.695Z,6.22
2023-01-27T12:50:33.761Z,6.25
2023-01-27T12:53:10.861Z,4.63
2023-01-27T12:56:06.651Z,5.18
2023-01-27T12:58:38.074Z,6.18
2023-01-27T13:01:21.070Z,5.80
2023-01-27T13:03:58.631Z,5.22
2023-01-27T13:06:48.083Z,9.73
2023-01-27T13:09:24.213Z,12.63
2023-01-27T13:11:51.137Z,8.27
2023-01-27T13:14:18.536Z,6.35
2023-01-27T13:16:55.962Z,6.00
2023-01-27T13:19:37.797Z,5.20
2023-01-27T13:22:05.250Z,4.97
2023-01-27T13:24:42.279Z,4.68
2023-01-27T13:27:17.688Z,4.10
2023-01-27T13:29:54.442Z,5.80
2023-01-27T13:32:27.103Z,4.05
2023-01-27T13:35:04.097Z,4.47
2023-01-27T13:37:40.544Z,5.57
2023-01-27T13:40:23.448Z,5.95
2023-01-27T13:43:12.210Z,5.40
2023-01-27T13:45:44.305Z,9.43
2023-01-27T13:48:10.613Z,13.57
2023-01-27T13:50:44.502Z,13.07
2023-01-27T13:53:15.223Z,11.93
2023-01-27T13:56:06.490Z,15.57
2023-01-27T13:58:54.236Z,16.30
2023-01-27T14:01:29.722Z,14.98
2023-01-27T14:04:28.478Z,10.77
2023-01-27T14:07:00.821Z,9.20
2023-01-27T14:09:39.826Z,8.38
2023-01-27T14:12:06.905Z,14.23
2023-01-27T14:14:52.433Z,20.85
2023-01-27T14:17:44.758Z,13.80
2023-01-27T14:20:26.784Z,12.45
2023-01-27T14:23:11.002Z,14.50
2023-01-27T14:26:03.163Z,14.05
2023-01-27T14:29:05.926Z,24.02
2023-01-27T14:31:44.687Z,10.57
2023-01-27T14:34:52.576Z,5.95
2023-01-27T14:37:30.029Z,5.07
2023-01-27T14:40:07.415Z,5.65
2023-01-27T14:42:39.843Z,5.45
2023-01-27T14:45:18.866Z,6.03
2023-01-27T14:47:57.028Z,6.15
2023-01-27T14:50:38.028Z,5.82
2023-01-27T14:53:16.186Z,7.00
2023-01-27T14:55:53.263Z,6.85
2023-01-27T14:58:44.585Z,8.32
2023-01-27T15:01:34.980Z,6.15
2023-01-27T15:04:22.122Z,5.53
2023-01-27T15:07:21.576Z,6.63
2023-01-27T15:10:08.177Z,5.57
2023-01-27T15:12:37.524Z,8.68
2023-01-27T15:15:27.899Z,9.93
2023-01-27T15:18:10.773Z,12.73
2023-01-27T15:20:40.009Z,6.80
2023-01-27T15:23:43.401Z,6.90
2023-01-27T15:26:11.123Z,11.18
2023-01-27T15:28:41.598Z,8.15
2023-01-27T15:31:13.962Z,11.10
2023-01-27T15:34:17.804Z,7.80
2023-01-27T15:37:10.083Z,8.18
2023-01-27T15:40:04.760Z,10.20
2023-01-27T15:42:52.643Z,14.10
2023-01-27T15:45:30.915Z,13.45
2023-01-27T15:48:11.820Z,17.85
2023-01-27T15:50:45.796Z,21.92
2023-01-27T15:53:15.675Z,18.98
2023-01-27T15:55:52.044Z,15.55
2023-01-27T15:58:40.765Z,12.80
2023-01-27T16:01:10.069Z,9.10
2023-01-27T16:03:43.565Z,14.30
2023-01-27T16:06:15.832Z,8.43
2023-01-27T16:08:48.540Z,36.40
2023-01-27T16:11:22.703Z,15.13
2023-01-27T16:13:49.241Z,14.85
2023-01-27T16:16:18.785Z,30.70
2023-01-27T16:19:17.468Z,30.73
2023-01-27T16:21:52.680Z,15.90
2023-01-27T16:24:25.163Z,9.00
2023-01-27T16:27:27.467Z,8.77
2023-01-27T16:29:58.688Z,8.55
2023-01-27T16:35:04.204Z,8.48
2023-01-27T16:37:34.636Z,12.15
2023-01-27T16:40:09.055Z,16.05
2023-01-27T16:42:52.948Z,21.15
2023-01-27T16:45:22.482Z,22.63
2023-01-27T16:48:10.317Z,18.92
2023-01-27T16:50:39.460Z,16.92
2023-01-27T16:53:13.926Z,13.77
2023-01-27T16:55:40.656Z,15.15
2023-01-27T16:58:20.472Z,52.78
2023-01-27T17:00:50.730Z,44.47
2023-01-27T17:03:21.652Z,26.03
2023-01-27T17:05:53.012Z,19.08
2023-01-27T17:08:27.564Z,9.20
2023-01-27T17:11:04.791Z,9.60
2023-01-27T17:13:48.300Z,9.00
2023-01-27T17:16:22.968Z,8.25
2023-01-27T17:18:52.835Z,8.73
2023-01-27T17:21:37.376Z,8.25
2023-01-27T17:24:24.176Z,7.80
2023-01-27T17:26:59.946Z,22.88
2023-01-27T17:29:39.637Z,19.60
2023-01-27T17:32:20.328Z,20.30
2023-01-27T17:34:48.225Z,27.42
2023-01-27T17:37:18.030Z,26.13
2023-01-27T17:39:45.575Z,25.90
2023-01-27T17:42:18.944Z,24.40
2023-01-27T17:44:47.001Z,14.68
2023-01-27T17:47:15.713Z,11.32
2023-01-27T17:49:42.963Z,11.68
2023-01-27T17:52:11.255Z,13.07
2023-01-27T17:54:38.924Z,13.27
2023-01-27T17:57:08.145Z,15.93
2023-01-27T17:59:40.555Z,12.65
2023-01-27T18:02:22.837Z,12.63
2023-01-27T18:04:49.832Z,9.60
2023-01-27T18:07:16.154Z,10.40
2023-01-27T18:09:45.063Z,9.38
2023-01-27T18:12:28.725Z,13.32
2023-01-27T18:14:55.075Z,14.43
2023-01-27T18:17:23.819Z,11.88
2023-01-27T18:19:52.508Z,11.30
2023-01-27T18:22:19.741Z,14.60
2023-01-27T18:24:55.482Z,17.90
2023-01-27T18:27:36.707Z,13.43
2023-01-27T18:30:12.841Z,10.00
2023-01-27T18:32:41.936Z,8.23
2023-01-27T18:35:29.742Z,8.93
2023-01-27T18:38:18.644Z,8.02
2023-01-27T18:40:45.093Z,8.77
2023-01-27T18:43:12.429Z,10.50
2023-01-27T18:45:38.740Z,10.35
2023-01-27T18:48:14.147Z,11.20
2023-01-27T18:50:47.650Z,12.20
2023-01-27T18:53:20.388Z,25.23
2023-01-27T18:55:46.711Z,27.65
2023-01-27T18:58:13.058Z,23.58
2023-01-27T19:00:47.746Z,18.15
2023-01-27T19:03:20.488Z,14.65
2023-01-27T19:05:47.638Z,19.38
2023-01-27T19:08:19.243Z,16.67
2023-01-27T19:10:47.512Z,13.60
2023-01-27T19:13:14.819Z,11.57
2023-01-27T19:15:49.891Z,12.02
2023-01-27T19:18:33.398Z,11.52
2023-01-27T19:21:01.111Z,12.18
2023-01-27T19:23:28.349Z,9.90
2023-01-27T19:25:57.704Z,9.95
2023-01-27T19:28:31.501Z,7.70
2023-01-27T19:30:58.964Z,7.05
2023-01-27T19:33:26.412Z,7.18
2023-01-27T19:35:58.561Z,8.02
2023-01-27T19:38:27.625Z,8.85
2023-01-27T19:40:54.682Z,8.57
2023-01-27T19:43:21.464Z,9.60
2023-01-27T19:45:49.722Z,12.20
2023-01-27T19:48:20.863Z,13.73
2023-01-27T19:50:47.926Z,7.38
2023-01-27T19:53:16.156Z,8.18
2023-01-27T19:55:42.776Z,7.72
2023-01-27T19:58:20.996Z,7.50
2023-01-27T20:00:47.460Z,8.45
2023-01-27T20:03:13.859Z,9.18
2023-01-27T20:05:40.368Z,7.82
2023-01-27T20:08:12.673Z,8.20
2023-01-27T20:10:38.995Z,7.03
2023-01-27T20:13:07.044Z,8.20
2023-01-27T20:15:40.931Z,10.95
2023-01-27T20:18:13.409Z,10.35
2023-01-27T20:20:39.758Z,8.13
2023-01-27T20:23:06.886Z,8.02
2023-01-27T20:25:34.027Z,7.00
2023-01-27T20:28:01.142Z,9.35
2023-01-27T20:30:32.592Z,21.90
2023-01-27T20:33:03.751Z,20.92
2023-01-27T20:37:57.158Z,8.35
2023-01-27T20:40:26.218Z,8.68
2023-01-27T20:42:53.192Z,8.15
2023-01-27T20:45:20.529Z,7.47
2023-01-27T20:47:51.688Z,8.05
2023-01-27T20:50:19.234Z,8.88
2023-01-27T20:52:47.620Z,6.50
2023-01-27T20:55:14.936Z,8.30
2023-01-27T20:57:41.887Z,7.00
2023-01-27T21:00:15.505Z,6.57
2023-01-27T21:02:41.965Z,5.80
2023-01-27T21:05:08.867Z,7.50
2023-01-27T21:07:35.196Z,5.93
2023-01-27T21:10:01.514Z,9.52
2023-01-27T21:12:29.331Z,13.75
2023-01-27T21:14:56.794Z,8.82
2023-01-27T21:17:23.816Z,7.20
2023-01-27T21:19:50.113Z,7.60
2023-01-27T21:22:16.517Z,6.00
2023-01-27T21:24:42.849Z,7.28
2023-01-27T21:27:09.137Z,6.82
2023-01-27T21:29:35.752Z,7.57
2023-01-27T21:32:02.064Z,5.95
2023-01-27T21:34:28.423Z,6.20
2023-01-27T21:36:55.730Z,5.55
2023-01-27T21:39:23.335Z,5.63
2023-01-27T21:41:52.620Z,5.45
2023-01-27T21:44:37.647Z,6.00
2023-01-27T21:47:05.217Z,6.13
2023-01-27T21:49:54.841Z,5.43
2023-01-27T21:52:24.613Z,4.88
2023-01-27T21:54:51.084Z,5.88
2023-01-27T21:57:17.774Z,5.68
2023-01-27T21:59:44.889Z,7.38
2023-01-27T22:02:13.216Z,6.78
2023-01-27T22:04:43.455Z,8.00
2023-01-27T22:07:12.197Z,7.60
2023-01-27T22:09:39.193Z,6.30
2023-01-27T22:12:08.288Z,6.20
2023-01-27T22:14:35.066Z,6.90
2023-01-27T22:17:02.207Z,6.22
2023-01-27T22:19:29.212Z,7.03
2023-01-27T22:21:56.160Z,7.10
2023-01-27T22:24:23.138Z,6.00
2023-01-27T22:26:49.636Z,5.70
2023-01-27T22:29:16.302Z,5.78
2023-01-27T22:31:42.740Z,5.85
2023-01-27T22:34:09.326Z,5.85
2023-01-27T22:36:36.422Z,5.78
2023-01-27T22:39:03.957Z,5.47
2023-01-27T22:41:30.640Z,4.43
2023-01-27T22:43:57.036Z,4.68
2023-01-27T22:46:23.926Z,4.40
2023-01-27T22:48:50.338Z,5.60
2023-01-27T22:51:17.381Z,4.95
2023-01-27T22:53:43.730Z,5.65
2023-01-27T22:56:10.056Z,5.68
2023-01-27T22:58:36.334Z,7.47
2023-01-27T23:01:06.747Z,7.32
2023-01-27T23:03:33.163Z,5.70
2023-01-27T23:06:07.877Z,6.88
2023-01-27T23:08:35.295Z,5.90
2023-01-27T23:11:03.865Z,6.82
2023-01-27T23:13:31.026Z,6.75
2023-01-27T23:15:58.051Z,6.15
2023-01-27T23:18:25.040Z,7.20
2023-01-27T23:20:51.797Z,5.38
2023-01-27T23:23:19.180Z,7.10
2023-01-27T23:25:46.878Z,6.85
2023-01-27T23:28:14.752Z,6.85
2023-01-27T23:30:45.790Z,7.32
2023-01-27T23:33:13.979Z,5.78
2023-01-27T23:35:40.979Z,6.10
2023-01-27T23:38:16.667Z,7.65
2023-01-27T23:40:54.247Z,10.48
2023-01-27T23:43:22.193Z,7.53
2023-01-27T23:45:52.369Z,7.20
2023-01-27T23:48:19.584Z,6.53
2023-01-27T23:50:45.911Z,5.95
2023-01-27T23:53:12.699Z,6.07
2023-01-27T23:55:39.020Z,7.53
2023-01-27T23:58:05.631Z,6.53
